createdAt,value
2022-08-12T00:01:02.971Z,18.70
2022-08-12T00:03:50.091Z,18.70
2022-08-12T00:06:40.948Z,18.70
2022-08-12T00:09:26.987Z,18.60
2022-08-12T00:12:13.538Z,18.60
2022-08-12T00:15:00.953Z,18.50
2022-08-12T00:17:46.890Z,18.50
2022-08-12T00:20:32.303Z,18.50
2022-08-12T00:23:18.191Z,18.40
2022-08-12T00:26:23.294Z,18.40
2022-08-12T00:29:13.846Z,18.40
2022-08-12T00:32:01.001Z,18.40
2022-08-12T00:34:49.078Z,18.30
2022-08-12T00:37:35.714Z,18.20
2022-08-12T00:40:23.820Z,18.20
2022-08-12T00:42:52.337Z,18.20
2022-08-12T00:45:19.899Z,18.20
2022-08-12T00:47:47.539Z,18.10
2022-08-12T00:50:19.952Z,18.10
2022-08-12T00:52:49.218Z,18.10
2022-08-12T00:55:17.914Z,18.10
2022-08-12T00:57:49.680Z,18.10
2022-08-12T01:00:21.485Z,18.10
2022-08-12T01:02:57.356Z,18.10
2022-08-12T01:05:44.306Z,18.00
2022-08-12T01:08:49.697Z,18.00
2022-08-12T01:11:29.244Z,18.00
2022-08-12T01:13:58.350Z,18.00
2022-08-12T01:16:54.191Z,18.00
2022-08-12T01:19:22.367Z,17.90
2022-08-12T01:22:15.933Z,17.90
2022-08-12T01:25:06.831Z,17.90
2022-08-12T01:27:35.353Z,17.90
2022-08-12T01:30:07.604Z,17.90
2022-08-12T01:32:38.269Z,17.90
2022-08-12T01:35:14.099Z,17.90
2022-08-12T01:38:04.906Z,17.80
2022-08-12T01:40:37.859Z,17.80
2022-08-12T01:43:13.144Z,17.70
2022-08-12T01:46:29.581Z,17.70
2022-08-12T01:49:03.396Z,17.70
2022-08-12T01:52:21.410Z,17.70
2022-08-12T01:54:43.136Z,17.70
2022-08-12T01:57:59.617Z,17.60
2022-08-12T02:00:56.147Z,17.60
2022-08-12T02:04:05.047Z,17.50
2022-08-12T02:07:07.515Z,17.50
2022-08-12T02:10:50.903Z,17.40
2022-08-12T02:13:17.930Z,17.40
2022-08-12T02:16:40.170Z,17.20
2022-08-12T02:19:27.671Z,17.20
2022-08-12T02:22:22.543Z,17.10
2022-08-12T02:24:54.174Z,17.10
2022-08-12T02:27:24.530Z,17.00
2022-08-12T02:29:51.374Z,17.00
2022-08-12T02:32:18.250Z,16.90
2022-08-12T02:34:45.832Z,16.90
2022-08-12T02:37:15.580Z,16.90
2022-08-12T02:39:48.495Z,16.80
2022-08-12T02:42:17.452Z,16.80
2022-08-12T02:44:49.050Z,16.80
2022-08-12T02:47:18.320Z,16.80
2022-08-12T02:50:06.898Z,16.80
2022-08-12T02:52:34.891Z,16.80
2022-08-12T02:55:34.927Z,16.70
2022-08-12T02:58:12.077Z,16.60
2022-08-12T03:00:42.807Z,16.60
2022-08-12T03:03:12.880Z,16.60
2022-08-12T03:05:54.312Z,16.60
2022-08-12T03:08:31.966Z,16.60
2022-08-12T03:11:15.172Z,16.50
2022-08-12T03:13:47.025Z,16.50
2022-08-12T03:16:14.828Z,16.50
2022-08-12T03:18:46.241Z,16.50
2022-08-12T03:21:16.987Z,16.50
2022-08-12T03:23:46.485Z,16.40
2022-08-12T03:26:14.724Z,16.40
2022-08-12T03:28:51.364Z,16.40
2022-08-12T03:31:33.747Z,16.30
2022-08-12T03:34:09.800Z,16.30
2022-08-12T03:36:38.612Z,16.30
2022-08-12T03:39:17.806Z,16.20
2022-08-12T03:42:06.127Z,16.20
2022-08-12T03:45:03.824Z,16.20
2022-08-12T03:48:19.125Z,16.20
2022-08-12T03:51:06.767Z,16.20
2022-08-12T03:53:52.467Z,16.20
2022-08-12T03:56:38.750Z,16.10
2022-08-12T03:59:26.045Z,16.00
2022-08-12T04:01:57.556Z,16.00
2022-08-12T04:04:25.450Z,16.00
2022-08-12T04:06:52.747Z,16.00
2022-08-12T04:09:23.173Z,16.00
2022-08-12T04:12:09.555Z,16.00
2022-08-12T04:14:37.749Z,16.00
2022-08-12T04:17:05.010Z,16.00
2022-08-12T04:19:31.910Z,16.00
2022-08-12T04:22:02.284Z,16.10
2022-08-12T04:24:34.983Z,16.10
2022-08-12T04:27:05.687Z,16.00
2022-08-12T04:30:29.149Z,16.00
2022-08-12T04:32:21.283Z,16.10
2022-08-12T04:34:48.230Z,16.10
2022-08-12T04:37:16.611Z,16.10
2022-08-12T04:39:45.363Z,16.10
2022-08-12T04:42:12.536Z,16.10
2022-08-12T04:44:39.403Z,16.10
2022-08-12T04:47:06.310Z,16.20
2022-08-12T04:49:35.119Z,16.10
2022-08-12T04:52:03.324Z,16.10
2022-08-12T04:54:31.694Z,16.10
2022-08-12T04:57:03.613Z,16.10
2022-08-12T04:59:46.804Z,16.20
2022-08-12T05:02:21.818Z,16.30
2022-08-12T05:04:51.928Z,16.30
2022-08-12T05:07:20.018Z,16.40
2022-08-12T05:09:58.907Z,16.50
2022-08-12T05:12:44.556Z,16.50
2022-08-12T05:15:27.994Z,16.70
2022-08-12T05:17:59.831Z,16.80
2022-08-12T05:20:27.297Z,16.90
2022-08-12T05:23:13.477Z,17.10
2022-08-12T05:25:47.465Z,17.20
2022-08-12T05:28:16.055Z,17.40
2022-08-12T05:30:44.449Z,17.60
2022-08-12T05:33:13.058Z,17.80
2022-08-12T05:35:43.343Z,18.00
2022-08-12T05:38:35.416Z,18.10
2022-08-12T05:41:04.882Z,18.30
2022-08-12T05:43:34.282Z,18.50
2022-08-12T05:46:01.163Z,18.60
2022-08-12T05:48:28.277Z,18.90
2022-08-12T05:50:56.719Z,18.90
2022-08-12T05:53:24.227Z,19.10
2022-08-12T05:55:53.248Z,19.10
2022-08-12T05:58:21.325Z,19.20
2022-08-12T06:00:48.314Z,19.30
2022-08-12T06:03:17.508Z,19.50
2022-08-12T06:05:55.430Z,19.60
2022-08-12T06:08:24.361Z,19.80
2022-08-12T06:10:51.623Z,19.90
2022-08-12T06:13:28.035Z,19.90
2022-08-12T06:16:07.817Z,20.10
2022-08-12T06:18:34.954Z,20.20
2022-08-12T06:21:02.401Z,20.50
2022-08-12T06:23:30.274Z,20.60
2022-08-12T06:25:58.658Z,21.00
2022-08-12T06:28:26.118Z,21.30
2022-08-12T06:31:22.041Z,21.80
2022-08-12T06:33:55.604Z,22.30
2022-08-12T06:36:29.964Z,22.80
2022-08-12T06:38:59.581Z,23.20
2022-08-12T06:42:02.746Z,23.50
2022-08-12T06:44:32.224Z,23.80
2022-08-12T06:46:59.084Z,24.10
2022-08-12T06:49:28.237Z,24.30
2022-08-12T06:51:56.902Z,24.30
2022-08-12T06:54:30.882Z,24.20
2022-08-12T06:57:04.036Z,24.00
2022-08-12T06:59:32.320Z,23.90
2022-08-12T07:01:59.288Z,23.70
2022-08-12T07:04:36.385Z,23.50
2022-08-12T07:07:06.349Z,23.40
2022-08-12T07:10:03.854Z,23.30
2022-08-12T07:12:22.008Z,23.20
2022-08-12T07:14:51.635Z,23.10
2022-08-12T07:17:18.905Z,23.20
2022-08-12T07:19:48.629Z,23.20
2022-08-12T07:22:16.340Z,23.10
2022-08-12T07:24:43.461Z,23.10
2022-08-12T07:27:10.385Z,23.20
2022-08-12T07:29:59.427Z,23.30
2022-08-12T07:32:24.698Z,23.40
2022-08-12T07:34:54.713Z,23.40
2022-08-12T10:35:02.209Z,27.20
2022-08-12T10:38:36.413Z,27.20
2022-08-12T10:40:21.165Z,27.30
2022-08-12T10:43:11.350Z,27.30
2022-08-12T10:45:46.136Z,27.30
2022-08-12T10:48:21.609Z,27.30
2022-08-12T10:51:01.890Z,27.30
2022-08-12T10:53:44.242Z,27.30
2022-08-12T10:56:16.916Z,27.30
2022-08-12T10:58:47.039Z,27.40
2022-08-12T11:03:01.489Z,27.30
2022-08-12T11:04:31.671Z,27.40
2022-08-12T11:07:07.718Z,27.40
2022-08-12T11:10:01.089Z,27.30
2022-08-12T11:12:56.183Z,27.50
2022-08-12T11:15:33.065Z,27.60
2022-08-12T11:18:11.924Z,27.50
2022-08-12T11:20:47.974Z,27.50
2022-08-12T11:23:25.206Z,27.50
2022-08-12T11:26:05.587Z,27.60
2022-08-12T11:28:37.481Z,27.80
2022-08-12T11:31:07.145Z,27.80
2022-08-12T11:34:06.321Z,27.80
2022-08-12T11:36:26.155Z,27.90
2022-08-12T11:38:53.216Z,27.90
2022-08-12T11:41:28.009Z,27.90
2022-08-12T11:43:59.833Z,27.90
2022-08-12T11:46:47.034Z,28.00
2022-08-12T11:49:30.764Z,28.10
2022-08-12T11:52:01.803Z,28.20
2022-08-12T11:54:29.839Z,28.10
2022-08-12T11:57:02.388Z,28.00
2022-08-12T12:02:20.863Z,28.10
2022-08-12T12:04:52.798Z,28.10
2022-08-12T12:07:33.683Z,28.10
2022-08-12T12:10:14.117Z,28.20
2022-08-12T12:12:50.128Z,28.10
2022-08-12T12:15:24.754Z,28.30
2022-08-12T12:17:55.015Z,28.30
2022-08-12T12:20:26.056Z,28.20
2022-08-12T12:22:57.516Z,28.20
2022-08-12T12:26:06.994Z,28.20
2022-08-12T12:28:37.353Z,28.30
2022-08-12T12:30:58.957Z,28.50
2022-08-12T12:33:27.104Z,28.50
2022-08-12T12:36:20.697Z,28.50
2022-08-12T12:38:51.461Z,28.40
2022-08-12T12:41:19.294Z,28.40
2022-08-12T12:43:56.567Z,28.40
2022-08-12T12:46:31.413Z,28.30
2022-08-12T12:48:58.285Z,28.50
2022-08-12T12:52:06.766Z,28.40
2022-08-12T12:54:12.561Z,28.50
2022-08-12T12:56:42.984Z,28.60
2022-08-12T12:59:33.838Z,28.70
2022-08-12T13:02:08.166Z,28.60
2022-08-12T13:04:37.522Z,28.60
2022-08-12T13:07:05.919Z,28.60
2022-08-12T13:09:36.445Z,28.60
2022-08-12T13:12:08.229Z,28.60
2022-08-12T13:14:35.344Z,28.50
2022-08-12T13:17:09.637Z,28.50
2022-08-12T13:19:43.397Z,28.50
2022-08-12T13:22:18.637Z,28.50
2022-08-12T13:24:54.831Z,28.50
2022-08-12T13:27:46.294Z,28.50
2022-08-12T13:30:20.552Z,28.60
2022-08-12T13:32:59.439Z,28.60
2022-08-12T13:35:33.662Z,28.60
2022-08-12T13:38:26.546Z,28.60
2022-08-12T13:41:03.328Z,28.50
2022-08-12T13:43:40.947Z,28.60
2022-08-12T13:46:12.432Z,28.50
2022-08-12T13:48:45.152Z,28.60
2022-08-12T13:51:14.103Z,28.60
2022-08-12T13:53:55.057Z,28.60
2022-08-12T13:56:34.480Z,28.60
2022-08-12T13:59:05.601Z,28.60
2022-08-12T14:01:35.776Z,28.60
2022-08-12T14:04:11.418Z,28.50
2022-08-12T14:06:40.017Z,28.50
2022-08-12T14:09:17.398Z,28.50
2022-08-12T14:11:59.216Z,28.50
2022-08-12T14:14:31.748Z,28.70
2022-08-12T14:17:05.680Z,28.70
2022-08-12T14:19:37.980Z,28.60
2022-08-12T14:22:06.749Z,28.60
2022-08-12T14:24:40.499Z,28.60
2022-08-12T14:27:12.051Z,28.60
2022-08-12T14:30:04.658Z,28.70
2022-08-12T14:32:34.819Z,28.80
2022-08-12T14:35:03.994Z,28.70
2022-08-12T14:37:55.538Z,28.80
2022-08-12T14:40:18.349Z,28.70
2022-08-12T14:42:46.907Z,28.60
2022-08-12T14:45:14.258Z,28.60
2022-08-12T14:47:53.670Z,28.60
2022-08-12T14:50:41.230Z,28.60
2022-08-12T14:55:13.870Z,28.60
2022-08-12T14:59:23.295Z,28.60
2022-08-12T15:01:52.239Z,28.60
2022-08-12T15:04:24.671Z,28.70
2022-08-12T15:06:53.373Z,28.70
2022-08-12T15:09:28.757Z,28.70
2022-08-12T15:12:04.087Z,28.70
2022-08-12T15:14:32.107Z,28.70
2022-08-12T15:17:02.713Z,28.70
2022-08-12T15:20:31.069Z,28.70
2022-08-12T15:22:39.416Z,28.70
2022-08-12T15:25:07.248Z,28.70
2022-08-12T15:28:04.301Z,28.60
2022-08-12T15:30:30.291Z,28.60
2022-08-12T15:32:57.465Z,28.60
2022-08-12T15:35:27.386Z,28.60
2022-08-12T15:38:13.799Z,28.60
2022-08-12T15:40:46.751Z,28.60
2022-08-12T15:43:35.561Z,28.60
2022-08-12T15:46:04.687Z,28.70
2022-08-12T15:48:34.709Z,28.70
2022-08-12T15:51:03.891Z,28.60
2022-08-12T15:53:53.377Z,28.70
2022-08-12T15:56:29.276Z,28.70
2022-08-12T15:58:58.937Z,28.60
2022-08-12T16:01:34.061Z,28.60
2022-08-12T16:04:05.326Z,28.60
2022-08-12T16:06:59.273Z,28.60
2022-08-12T16:09:55.866Z,28.50
2022-08-12T16:12:11.296Z,28.50
2022-08-12T16:14:39.367Z,28.50
2022-08-12T16:17:09.004Z,28.50
2022-08-12T16:20:03.489Z,28.50
2022-08-12T16:22:35.870Z,28.50
2022-08-12T16:25:06.997Z,28.50
2022-08-12T16:27:38.452Z,28.50
2022-08-12T16:30:06.153Z,28.50
2022-08-12T16:32:36.775Z,28.50
2022-08-12T16:35:16.532Z,28.40
2022-08-12T16:38:24.767Z,28.40
2022-08-12T16:40:34.874Z,28.30
2022-08-12T16:43:04.895Z,28.30
2022-08-12T16:46:23.491Z,28.30
2022-08-12T16:48:34.972Z,28.20
2022-08-12T16:51:10.142Z,28.20
2022-08-12T16:53:44.928Z,28.20
2022-08-12T16:56:15.738Z,28.20
2022-08-12T16:58:44.130Z,28.10
2022-08-12T17:01:14.481Z,28.10
2022-08-12T17:04:12.620Z,28.10
2022-08-12T17:06:44.245Z,28.10
2022-08-12T17:09:17.210Z,28.10
2022-08-12T17:11:50.446Z,28.10
2022-08-12T17:14:23.167Z,28.00
2022-08-12T17:16:55.378Z,28.00
2022-08-12T17:20:29.302Z,27.90
2022-08-12T17:22:16.363Z,27.70
2022-08-12T17:24:50.509Z,27.60
2022-08-12T17:27:22.109Z,27.50
2022-08-12T17:30:03.130Z,27.40
2022-08-12T17:32:33.543Z,27.30
2022-08-12T17:35:19.858Z,27.20
2022-08-12T17:37:48.392Z,27.10
2022-08-12T17:40:34.328Z,27.00
2022-08-12T17:43:54.720Z,26.90
2022-08-12T17:45:59.043Z,26.80
2022-08-12T17:48:34.774Z,26.70
2022-08-12T17:51:15.640Z,26.70
2022-08-12T17:54:10.936Z,26.70
2022-08-12T17:56:39.623Z,26.70
2022-08-12T17:59:07.403Z,26.60
2022-08-12T18:01:35.856Z,26.60
2022-08-12T18:04:21.535Z,26.50
2022-08-12T18:06:54.075Z,26.50
2022-08-12T18:09:24.285Z,26.40
2022-08-12T18:12:11.839Z,26.40
2022-08-12T18:14:41.210Z,26.40
2022-08-12T18:17:09.846Z,26.30
2022-08-12T18:20:05.170Z,26.20
2022-08-12T18:22:33.082Z,26.20
2022-08-12T18:25:05.331Z,26.10
2022-08-12T18:27:44.349Z,26.10
2022-08-12T18:30:20.413Z,26.10
2022-08-12T18:33:03.053Z,26.00
2022-08-12T18:35:46.594Z,25.90
2022-08-12T18:38:22.614Z,25.90
2022-08-12T18:41:21.900Z,25.80
2022-08-12T18:44:02.697Z,25.70
2022-08-12T18:46:54.309Z,25.50
2022-08-12T18:49:31.990Z,25.40
2022-08-12T18:52:04.673Z,25.30
2022-08-12T18:54:41.512Z,25.20
2022-08-12T18:57:19.556Z,25.20
2022-08-12T19:00:07.599Z,25.10
2022-08-12T19:02:40.497Z,25.00
2022-08-12T19:05:10.808Z,24.90
2022-08-12T19:08:01.806Z,24.80
2022-08-12T19:10:31.323Z,24.70
2022-08-12T19:13:24.224Z,24.60
2022-08-12T19:15:57.422Z,24.50
2022-08-12T19:18:29.919Z,24.50
2022-08-12T19:21:11.840Z,24.40
2022-08-12T19:23:43.575Z,24.30
2022-08-12T19:26:12.617Z,24.20
2022-08-12T19:28:40.672Z,24.20
2022-08-12T19:31:56.443Z,24.10
2022-08-12T19:35:06.598Z,24.00
2022-08-12T19:37:27.048Z,23.90
2022-08-12T19:40:09.178Z,23.80
2022-08-12T19:43:00.791Z,23.70
2022-08-12T19:45:43.210Z,23.70
2022-08-12T19:48:18.828Z,23.70
2022-08-12T19:50:50.289Z,23.60
2022-08-12T19:53:22.927Z,23.50
2022-08-12T19:55:54.707Z,23.50
2022-08-12T19:58:23.328Z,23.40
2022-08-12T20:00:52.847Z,23.30
2022-08-12T20:03:39.415Z,23.20
2022-08-12T20:06:13.883Z,23.20
2022-08-12T20:08:47.783Z,23.20
2022-08-12T20:12:13.516Z,23.10
2022-08-12T20:14:07.570Z,23.00
2022-08-12T20:19:52.390Z,22.80
2022-08-12T20:22:29.442Z,22.80
2022-08-12T20:25:00.827Z,22.70
2022-08-12T20:28:03.155Z,22.60
2022-08-12T20:30:15.544Z,22.50
2022-08-12T20:32:56.649Z,22.40
2022-08-12T20:36:06.210Z,22.30
2022-08-12T20:38:26.815Z,22.30
2022-08-12T20:40:55.670Z,22.20
2022-08-12T20:43:28.366Z,22.20
2022-08-12T20:45:58.623Z,22.20
2022-08-12T20:48:28.612Z,22.10
2022-08-12T20:50:57.900Z,22.00
2022-08-12T20:53:54.221Z,22.00
2022-08-12T20:56:36.978Z,22.00
2022-08-12T20:59:07.031Z,22.00
2022-08-12T21:01:46.700Z,21.90
2022-08-12T21:04:35.287Z,21.80
2022-08-12T21:07:09.114Z,21.80
2022-08-12T21:09:47.170Z,21.80
2022-08-12T21:12:28.695Z,21.70
2022-08-12T21:15:23.634Z,21.70
2022-08-12T21:18:11.093Z,21.60
2022-08-12T21:20:55.745Z,21.60
2022-08-12T21:23:23.369Z,21.50
2022-08-12T21:25:56.756Z,21.50
2022-08-12T21:28:31.612Z,21.40
2022-08-12T21:32:34.794Z,21.30
2022-08-12T21:34:08.218Z,21.30
2022-08-12T21:36:40.416Z,21.20
2022-08-12T21:39:20.788Z,21.20
2022-08-12T21:41:53.409Z,21.10
2022-08-12T21:45:43.302Z,21.10
2022-08-12T21:47:21.332Z,21.10
2022-08-12T21:50:06.951Z,21.00
2022-08-12T21:52:42.313Z,20.90
2022-08-12T21:55:19.288Z,20.90
2022-08-12T21:57:54.894Z,20.80
2022-08-12T22:00:35.078Z,20.70
2022-08-12T22:04:03.352Z,20.70
2022-08-12T22:06:26.207Z,20.70
2022-08-12T22:09:02.599Z,20.70
2022-08-12T22:11:42.393Z,20.60
2022-08-12T22:14:21.959Z,20.50
2022-08-12T22:16:53.861Z,20.50
2022-08-12T22:19:22.679Z,20.40
2022-08-12T22:21:54.583Z,20.30
2022-08-12T22:24:30.138Z,20.30
2022-08-12T22:27:14.464Z,20.30
2022-08-12T22:30:09.019Z,20.30
2022-08-12T22:32:49.873Z,20.20
2022-08-12T22:35:56.181Z,20.20
2022-08-12T22:38:21.055Z,20.20
2022-08-12T22:40:48.970Z,20.20
2022-08-12T22:43:35.587Z,20.10
2022-08-12T22:46:22.418Z,20.10
2022-08-12T22:48:53.549Z,20.00
2022-08-12T22:51:22.282Z,20.00
2022-08-12T22:53:54.133Z,19.90
2022-08-12T22:56:31.366Z,19.90
2022-08-12T22:59:02.834Z,19.90
2022-08-12T23:02:01.464Z,19.90
2022-08-12T23:04:27.675Z,19.90
2022-08-12T23:06:58.277Z,19.80
2022-08-12T23:09:44.710Z,19.80
2022-08-12T23:12:37.476Z,19.80
2022-08-12T23:15:13.505Z,19.70
2022-08-12T23:17:41.889Z,19.70
2022-08-12T23:20:10.930Z,19.70
2022-08-12T23:22:38.793Z,19.60
2022-08-12T23:25:21.115Z,19.70
2022-08-12T23:28:30.167Z,19.60
2022-08-12T23:30:58.828Z,19.60
2022-08-12T23:34:00.754Z,19.60
2022-08-12T23:36:31.691Z,19.60
2022-08-12T23:40:14.122Z,19.60
2022-08-12T23:42:18.087Z,19.60
2022-08-12T23:44:44.360Z,19.50
2022-08-12T23:47:12.664Z,19.50
2022-08-12T23:49:57.989Z,19.40
2022-08-12T23:52:33.805Z,19.40
2022-08-12T23:55:23.405Z,19.40
2022-08-12T23:58:17.302Z,19.30
